Time;durP1;ratioP1;P1;durP2;ratioP2;P2;SDS_P1;SDS_P2;PMS_P1;PMS_P2;Temp;Humidity;BMP_temperature;BMP_pressure;BME280_temperature;BME280_humidity;BME280_pressure;Samples;Min_cycle;Max_cycle;Signal;HPM_P1;HPM_P2
2022/01/11 00:00:12;;;;;;;45.20;17.48;;;25.00;99.90;;;;;;5076491;28;20061;-74
2022/01/11 00:02:43;;;;;;;36.50;24.42;;;25.00;99.90;;;;;;5076146;28;20382;-73
2022/01/11 00:07:51;;;;;;;24.23;15.90;;;25.10;99.90;;;;;;5075882;28;20036;-73
2022/01/11 00:10:27;;;;;;;45.45;32.97;;;25.10;99.90;;;;;;5076687;28;20021;-75
2022/01/11 00:12:55;;;;;;;32.13;23.65;;;25.10;99.90;;;;;;5076482;28;20032;-76
2022/01/11 00:15:23;;;;;;;30.33;20.42;;;25.10;99.90;;;;;;5076759;28;20032;-72
2022/01/11 00:17:50;;;;;;;38.13;21.67;;;25.20;99.90;;;;;;5076586;28;20322;-76
2022/01/11 00:20:20;;;;;;;374.80;311.58;;;25.20;99.90;;;;;;5076534;28;20359;-75
2022/01/11 00:25:32;;;;;;;27.95;19.83;;;25.30;99.90;;;;;;5056348;28;20516;-73
2022/01/11 00:27:59;;;;;;;31.85;19.67;;;25.30;99.90;;;;;;5056661;28;20036;-74
2022/01/11 00:30:33;;;;;;;24.45;19.15;;;25.40;99.90;;;;;;5075138;28;20113;-73
2022/01/11 00:33:04;;;;;;;37.17;20.35;;;25.40;99.90;;;;;;5076214;28;20021;-73
2022/01/11 00:38:18;;;;;;;54.65;37.25;;;25.50;99.90;;;;;;5076000;28;20385;-75
2022/01/11 00:40:49;;;;;;;40.85;32.40;;;25.50;99.90;;;;;;5076031;28;20120;-74
2022/01/11 00:43:19;;;;;;;46.80;37.43;;;25.50;99.90;;;;;;5076145;28;20469;-73
2022/01/11 00:45:46;;;;;;;63.45;40.70;;;25.50;99.90;;;;;;5076222;28;20028;-75
2022/01/11 00:48:14;;;;;;;84.47;52.60;;;25.50;99.90;;;;;;5086732;28;20381;-72
2022/01/11 00:50:41;;;;;;;62.17;36.40;;;25.60;99.90;;;;;;5096676;28;20032;-72
2022/01/11 00:53:09;;;;;;;42.38;26.60;;;25.70;99.90;;;;;;5096057;28;20052;-72
2022/01/11 00:55:38;;;;;;;42.70;27.10;;;25.80;99.90;;;;;;5080826;28;20098;-72
2022/01/11 00:58:05;;;;;;;53.83;32.92;;;25.80;99.90;;;;;;5075900;28;20086;-72
2022/01/11 01:00:34;;;;;;;60.05;34.97;;;25.80;99.90;;;;;;5075699;28;20407;-72
2022/01/11 01:03:00;;;;;;;31.30;22.38;;;25.80;99.90;;;;;;5076258;28;20025;-71
2022/01/11 01:05:28;;;;;;;37.13;21.27;;;25.80;99.90;;;;;;5074710;28;20478;-73
2022/01/11 01:07:55;;;;;;;38.53;24.90;;;25.80;99.90;;;;;;5075613;28;20406;-73
2022/01/11 01:12:54;;;;;;;40.40;23.70;;;25.80;99.90;;;;;;5075594;28;20150;-71
2022/01/11 01:15:22;;;;;;;33.13;21.40;;;25.80;99.90;;;;;;5075310;28;20040;-72
2022/01/11 01:17:49;;;;;;;27.65;18.77;;;25.90;99.90;;;;;;5075776;28;20111;-71
2022/01/11 01:20:16;;;;;;;24.95;18.35;;;25.90;99.90;;;;;;5075440;28;20020;-74
2022/01/11 01:22:43;;;;;;;32.28;20.35;;;25.80;99.90;;;;;;5075491;28;20028;-74
2022/01/11 01:25:10;;;;;;;34.72;21.42;;;25.90;99.90;;;;;;5075281;28;20078;-72
2022/01/11 01:27:38;;;;;;;33.95;21.33;;;25.90;99.90;;;;;;5075570;28;20111;-71
2022/01/11 01:30:06;;;;;;;35.67;19.63;;;25.90;99.90;;;;;;5075544;28;20033;-72
2022/01/11 01:32:33;;;;;;;33.38;24.98;;;25.90;99.90;;;;;;5075474;28;20056;-72
2022/01/11 01:35:04;;;;;;;47.50;34.75;;;26.10;99.90;;;;;;5075099;28;20025;-74
2022/01/11 01:37:31;;;;;;;33.28;22.38;;;26.10;99.90;;;;;;5075204;28;20025;-72
2022/01/11 01:39:57;;;;;;;46.97;26.75;;;26.20;99.90;;;;;;5075284;28;20396;-72
2022/01/11 01:42:28;;;;;;;78.78;56.22;;;26.30;99.90;;;;;;5075132;28;20082;-72
2022/01/11 01:44:55;;;;;;;35.83;24.85;;;26.40;99.90;;;;;;5074886;28;20154;-71
2022/01/11 01:47:22;;;;;;;101.95;78.32;;;26.50;99.90;;;;;;5075133;28;20020;-71
2022/01/11 01:49:49;;;;;;;29.17;23.77;;;26.60;99.90;;;;;;5074594;28;20070;-70
2022/01/11 01:52:16;;;;;;;76.97;50.67;;;26.60;99.90;;;;;;5074531;28;20047;-73
2022/01/11 01:54:43;;;;;;;27.48;17.33;;;26.60;99.90;;;;;;5074401;28;20020;-71
2022/01/11 01:57:10;;;;;;;33.40;25.52;;;26.60;99.90;;;;;;5074250;28;20029;-71
2022/01/11 01:59:37;;;;;;;65.63;40.08;;;26.60;99.90;;;;;;5074600;28;20099;-71
2022/01/11 02:02:07;;;;;;;31.95;22.15;;;26.60;99.90;;;;;;5074173;28;20033;-71
2022/01/11 02:04:34;;;;;;;34.47;19.75;;;26.70;99.90;;;;;;5074386;28;20021;-70
2022/01/11 02:07:01;;;;;;;33.47;20.85;;;26.70;99.90;;;;;;5074270;28;20020;-70
2022/01/11 02:09:28;;;;;;;39.42;23.98;;;26.70;99.90;;;;;;5074181;28;20024;-72
2022/01/11 02:11:55;;;;;;;31.08;21.98;;;26.80;99.90;;;;;;5073628;28;20028;-71
2022/01/11 02:14:22;;;;;;;32.78;22.38;;;26.80;99.90;;;;;;5073959;28;20099;-72
2022/01/11 02:16:49;;;;;;;28.58;21.17;;;26.90;99.90;;;;;;5073924;28;20127;-72
2022/01/11 02:19:16;;;;;;;33.90;24.05;;;27.00;99.90;;;;;;5074402;28;20036;-71
2022/01/11 02:21:42;;;;;;;35.92;23.38;;;27.00;99.90;;;;;;5073876;28;20107;-71
2022/01/11 02:24:09;;;;;;;64.65;51.03;;;27.00;99.90;;;;;;5073789;28;20591;-72
2022/01/11 02:26:36;;;;;;;36.35;23.52;;;27.00;99.90;;;;;;5074039;28;20416;-73
2022/01/11 02:29:03;;;;;;;30.42;18.95;;;27.10;99.90;;;;;;5074116;28;20027;-69
2022/01/11 02:31:30;;;;;;;54.53;35.95;;;27.10;99.90;;;;;;5074099;28;20103;-71
2022/01/11 02:33:58;;;;;;;34.38;20.40;;;27.10;99.90;;;;;;5073664;28;20021;-72
2022/01/11 02:36:33;;;;;;;34.83;26.00;;;27.10;99.90;;;;;;5074095;28;20299;-73
2022/01/11 02:39:00;;;;;;;45.15;26.15;;;27.20;99.90;;;;;;5073595;28;20025;-71
2022/01/11 02:41:29;;;;;;;29.95;20.52;;;27.20;99.90;;;;;;5073676;28;20471;-73
2022/01/11 02:43:57;;;;;;;32.63;21.73;;;27.30;99.90;;;;;;5073524;28;20029;-72
2022/01/11 02:46:24;;;;;;;30.88;20.10;;;27.30;99.90;;;;;;5074025;28;20105;-72
2022/01/11 02:48:53;;;;;;;43.40;28.33;;;27.30;99.90;;;;;;5073459;28;20024;-72
2022/01/11 02:51:21;;;;;;;35.67;22.95;;;27.40;99.90;;;;;;5073531;28;20028;-72
2022/01/11 02:53:50;;;;;;;35.35;22.05;;;27.40;99.90;;;;;;5073840;28;20035;-70
2022/01/11 02:56:18;;;;;;;38.60;21.35;;;27.40;99.90;;;;;;5074283;28;20029;-70
2022/01/11 02:58:46;;;;;;;44.75;28.92;;;27.50;99.90;;;;;;5073269;28;20016;-70
2022/01/11 03:01:12;;;;;;;28.27;15.02;;;27.60;99.90;;;;;;5073726;28;20021;-71
2022/01/11 03:03:39;;;;;;;50.78;28.40;;;27.60;99.90;;;;;;5066534;28;20020;-73
2022/01/11 03:06:06;;;;;;;54.35;28.35;;;27.50;99.90;;;;;;5061309;28;20108;-73
2022/01/11 03:08:36;;;;;;;34.47;22.45;;;27.60;99.90;;;;;;5067085;28;20021;-75
2022/01/11 03:11:05;;;;;;;28.35;17.48;;;27.60;99.90;;;;;;5073782;28;20051;-74
2022/01/11 03:13:32;;;;;;;25.83;17.70;;;27.60;99.90;;;;;;5073640;28;20024;-71
2022/01/11 03:15:59;;;;;;;21.90;14.02;;;27.70;99.90;;;;;;5073141;28;20100;-72
2022/01/11 03:18:25;;;;;;;31.67;18.25;;;27.70;99.90;;;;;;5073207;28;20381;-74
2022/01/11 03:20:53;;;;;;;59.15;32.58;;;27.70;99.90;;;;;;5072678;28;20024;-73
2022/01/11 03:23:21;;;;;;;41.97;26.80;;;27.70;99.90;;;;;;5072917;28;20035;-76
2022/01/11 03:25:51;;;;;;;48.65;30.10;;;27.60;99.90;;;;;;5073073;28;20024;-73
2022/01/11 03:28:20;;;;;;;38.58;27.77;;;27.60;99.90;;;;;;5072196;28;20542;-75
2022/01/11 03:30:48;;;;;;;130.50;83.63;;;27.70;99.90;;;;;;5071754;28;20068;-74
2022/01/11 03:33:15;;;;;;;117.60;79.20;;;27.70;99.90;;;;;;5073561;28;20032;-73
2022/01/11 03:35:42;;;;;;;54.55;37.20;;;27.80;99.90;;;;;;5073367;28;20059;-74
2022/01/11 03:38:11;;;;;;;41.45;22.98;;;27.80;99.90;;;;;;5073535;28;20029;-73
2022/01/11 03:40:39;;;;;;;102.20;63.58;;;27.80;99.90;;;;;;5073185;28;20103;-74
2022/01/11 03:43:06;;;;;;;60.75;40.17;;;27.80;99.90;;;;;;5073695;28;20071;-74
2022/01/11 03:45:33;;;;;;;73.05;43.50;;;27.80;99.90;;;;;;5073280;28;20020;-74
2022/01/11 03:48:01;;;;;;;111.75;70.60;;;27.80;99.90;;;;;;5073279;28;20029;-74
2022/01/11 03:50:30;;;;;;;98.93;62.30;;;27.80;99.90;;;;;;5073047;28;20028;-74
2022/01/11 03:53:00;;;;;;;55.22;37.97;;;27.80;99.90;;;;;;5072343;28;20051;-72
2022/01/11 03:58:07;;;;;;;144.10;96.57;;;27.90;99.90;;;;;;5072392;28;20017;-73
2022/01/11 04:00:34;;;;;;;45.85;31.50;;;27.90;99.90;;;;;;5072436;28;20036;-74
2022/01/11 04:03:00;;;;;;;74.88;47.33;;;27.90;99.90;;;;;;5072557;28;20053;-73
2022/01/11 04:05:27;;;;;;;52.67;36.95;;;27.90;99.90;;;;;;5072819;28;20055;-74
2022/01/11 04:07:54;;;;;;;36.42;26.52;;;27.90;99.90;;;;;;5087781;28;20113;-74
2022/01/11 04:10:20;;;;;;;33.05;20.60;;;28.00;99.90;;;;;;5072854;28;20021;-71
2022/01/11 04:12:48;;;;;;;46.17;29.55;;;28.00;99.90;;;;;;5072552;28;20146;-72
2022/01/11 04:15:15;;;;;;;54.58;37.55;;;28.10;99.90;;;;;;5071423;28;20021;-73
2022/01/11 04:17:42;;;;;;;35.42;22.73;;;28.20;99.90;;;;;;5072956;28;20044;-72
2022/01/11 04:20:09;;;;;;;22.65;16.77;;;28.20;99.90;;;;;;5072752;28;20024;-71
2022/01/11 04:22:36;;;;;;;28.65;19.83;;;28.30;99.90;;;;;;5072586;28;20025;-72
2022/01/11 04:25:03;;;;;;;45.42;26.35;;;28.30;99.90;;;;;;5073008;28;20021;-70
2022/01/11 04:27:30;;;;;;;75.90;52.75;;;28.30;99.90;;;;;;5073537;28;20117;-71
2022/01/11 04:29:57;;;;;;;50.13;37.35;;;28.40;99.90;;;;;;5072764;28;20426;-72
2022/01/11 04:32:23;;;;;;;64.60;41.78;;;28.50;99.90;;;;;;5073297;28;20017;-73
2022/01/11 04:34:50;;;;;;;33.45;22.00;;;28.60;99.90;;;;;;5072188;28;20477;-73
2022/01/11 04:37:17;;;;;;;36.92;26.08;;;28.70;99.90;;;;;;5072527;28;20044;-73
2022/01/11 04:39:43;;;;;;;31.75;19.52;;;28.80;99.90;;;;;;5073314;28;20021;-72
2022/01/11 04:42:10;;;;;;;35.53;24.95;;;28.90;99.90;;;;;;5075317;28;20038;-74
2022/01/11 04:44:37;;;;;;;31.27;21.42;;;29.10;99.90;;;;;;5069788;28;20031;-69
2022/01/11 04:47:04;;;;;;;61.85;46.60;;;29.20;99.90;;;;;;5072374;28;20385;-72
2022/01/11 04:49:31;;;;;;;37.22;27.33;;;29.30;99.90;;;;;;5060387;28;20053;-74
2022/01/11 04:51:58;;;;;;;34.15;24.67;;;29.30;99.90;;;;;;5076221;28;20097;-72
2022/01/11 04:54:25;;;;;;;36.08;23.65;;;29.30;99.90;;;;;;5075999;28;20476;-73
2022/01/11 04:56:51;;;;;;;49.55;35.35;;;29.30;99.90;;;;;;5076073;28;20046;-72
2022/01/11 04:59:18;;;;;;;53.60;33.03;;;29.20;99.90;;;;;;5076071;28;20020;-69
2022/01/11 05:01:45;;;;;;;33.95;18.25;;;29.20;99.90;;;;;;5076170;28;20067;-70
2022/01/11 05:04:13;;;;;;;25.23;17.13;;;29.30;99.90;;;;;;5074818;28;20507;-71
2022/01/11 05:06:39;;;;;;;20.95;15.52;;;29.20;99.90;;;;;;5075369;28;20036;-71
2022/01/11 05:09:06;;;;;;;19.35;15.98;;;29.20;99.90;;;;;;5070419;28;20057;-70
2022/01/11 05:11:33;;;;;;;63.80;47.42;;;29.30;99.90;;;;;;5072695;28;20457;-72
2022/01/11 05:13:59;;;;;;;33.75;23.73;;;29.20;99.90;;;;;;5073730;28;20020;-70
2022/01/11 05:16:26;;;;;;;40.50;26.08;;;29.30;99.90;;;;;;5074841;28;20052;-69
2022/01/11 05:18:52;;;;;;;280.30;202.57;;;29.30;99.90;;;;;;5075614;28;20013;-73
2022/01/11 05:21:20;;;;;;;34.35;25.00;;;29.30;99.90;;;;;;5075332;28;20017;-70
2022/01/11 05:23:46;;;;;;;50.38;35.22;;;29.30;99.90;;;;;;5074917;28;20012;-69
2022/01/11 05:26:13;;;;;;;25.58;17.35;;;29.30;99.90;;;;;;5072457;28;20037;-73
2022/01/11 05:28:40;;;;;;;33.72;18.98;;;29.30;99.90;;;;;;5075411;28;20029;-69
2022/01/11 05:31:06;;;;;;;28.40;19.33;;;29.30;99.90;;;;;;5075375;28;20311;-73
2022/01/11 05:33:35;;;;;;;24.60;16.83;;;29.30;99.90;;;;;;5066817;28;20426;-71
2022/01/11 05:36:01;;;;;;;21.10;15.30;;;29.40;99.90;;;;;;5075599;28;20362;-71
2022/01/11 05:38:28;;;;;;;18.77;13.23;;;29.60;99.90;;;;;;5075173;28;20024;-71
2022/01/11 05:40:56;;;;;;;24.50;14.38;;;29.60;99.90;;;;;;5075566;28;20107;-72
2022/01/11 05:43:22;;;;;;;21.77;15.57;;;29.50;99.90;;;;;;5074520;28;20032;-73
2022/01/11 05:45:49;;;;;;;18.35;14.27;;;29.50;99.90;;;;;;5073262;28;20037;-73
2022/01/11 05:48:16;;;;;;;22.08;16.05;;;29.50;99.90;;;;;;5073973;28;20078;-71
2022/01/11 05:50:43;;;;;;;19.60;13.30;;;29.50;99.90;;;;;;5074747;28;20059;-74
2022/01/11 05:53:10;;;;;;;21.88;12.10;;;29.50;99.90;;;;;;5070770;28;20075;-72
2022/01/11 05:55:37;;;;;;;20.55;14.25;;;29.40;99.90;;;;;;5075290;28;20543;-72
2022/01/11 05:58:04;;;;;;;18.08;13.65;;;29.40;99.90;;;;;;5073698;28;20095;-73
2022/01/11 06:00:31;;;;;;;18.48;14.80;;;29.30;99.90;;;;;;5075241;28;20168;-72
2022/01/11 06:02:58;;;;;;;29.58;14.32;;;29.30;99.90;;;;;;5075008;28;20099;-71
2022/01/11 06:05:25;;;;;;;20.95;14.48;;;29.10;99.90;;;;;;5074626;28;20044;-73
2022/01/11 06:07:52;;;;;;;24.35;14.20;;;29.20;99.90;;;;;;5075503;28;20060;-74
2022/01/11 06:10:19;;;;;;;19.88;13.85;;;29.30;99.90;;;;;;5075345;28;20115;-75
2022/01/11 06:12:46;;;;;;;23.88;15.30;;;29.30;99.90;;;;;;5074881;28;20477;-74
2022/01/11 06:15:12;;;;;;;31.38;22.95;;;29.30;99.90;;;;;;5074984;28;20094;-73
2022/01/11 06:17:39;;;;;;;20.88;15.18;;;29.30;99.90;;;;;;5073184;28;20037;-72
2022/01/11 06:20:08;;;;;;;18.17;12.80;;;29.40;99.90;;;;;;5074419;28;20099;-72
2022/01/11 06:22:35;;;;;;;19.55;12.13;;;29.50;99.90;;;;;;5073421;28;20080;-74
2022/01/11 06:25:03;;;;;;;19.88;12.73;;;29.50;99.90;;;;;;5073606;28;20492;-77
2022/01/11 06:27:31;;;;;;;20.25;12.65;;;29.40;99.90;;;;;;5071760;28;20095;-78
2022/01/11 06:29:58;;;;;;;15.02;11.63;;;29.40;99.90;;;;;;5074764;28;20032;-73
2022/01/11 06:32:24;;;;;;;15.82;10.23;;;29.40;99.90;;;;;;5072308;28;20500;-74
2022/01/11 06:34:53;;;;;;;15.00;9.43;;;29.50;99.90;;;;;;5073662;28;20110;-74
2022/01/11 06:37:20;;;;;;;18.75;13.50;;;29.60;99.90;;;;;;5074197;28;20029;-72
2022/01/11 06:39:47;;;;;;;25.92;13.07;;;29.70;99.90;;;;;;5067411;28;20028;-72
2022/01/11 06:42:14;;;;;;;20.90;14.05;;;29.80;99.90;;;;;;5073638;28;20487;-73
2022/01/11 06:44:42;;;;;;;15.95;11.13;;;29.80;99.90;;;;;;5069695;28;20031;-70
2022/01/11 06:47:09;;;;;;;15.40;10.98;;;29.90;99.60;;;;;;5074288;28;20024;-73
2022/01/11 06:49:35;;;;;;;15.55;10.32;;;29.90;99.90;;;;;;5073521;28;20499;-73
2022/01/11 06:52:03;;;;;;;14.77;9.55;;;30.00;99.90;;;;;;5073119;28;20393;-72
2022/01/11 06:54:30;;;;;;;16.85;11.60;;;30.00;99.10;;;;;;5073865;28;20036;-70
2022/01/11 06:56:56;;;;;;;15.80;10.13;;;30.00;98.30;;;;;;5073198;28;20033;-70
2022/01/11 06:59:23;;;;;;;20.50;11.88;;;30.10;98.30;;;;;;5072529;28;20044;-71
2022/01/11 07:01:50;;;;;;;25.27;17.73;;;30.20;98.90;;;;;;5055152;28;20017;-70
2022/01/11 07:04:19;;;;;;;16.42;8.80;;;30.20;99.30;;;;;;5087289;28;20431;-70
2022/01/11 07:06:46;;;;;;;15.90;11.50;;;30.30;97.00;;;;;;5072235;28;20135;-69
2022/01/11 07:09:15;;;;;;;19.73;11.10;;;30.30;97.80;;;;;;5072379;28;20028;-69
2022/01/11 07:11:42;;;;;;;15.98;9.00;;;30.40;97.30;;;;;;5067537;28;20093;-70
2022/01/11 07:14:08;;;;;;;15.82;8.60;;;30.30;96.30;;;;;;5067203;28;20028;-70
2022/01/11 07:16:35;;;;;;;14.45;9.40;;;30.30;96.80;;;;;;5072813;28;20401;-72
2022/01/11 07:19:02;;;;;;;14.55;10.32;;;30.30;97.20;;;;;;5073041;28;20021;-71
2022/01/11 07:21:29;;;;;;;16.30;10.00;;;30.40;97.30;;;;;;5072592;28;20040;-74
2022/01/11 07:23:55;;;;;;;13.32;9.27;;;30.40;96.60;;;;;;5072788;28;20047;-70
2022/01/11 07:26:22;;;;;;;19.25;10.07;;;30.40;94.80;;;;;;5073013;28;20029;-72
2022/01/11 07:28:49;;;;;;;20.90;14.15;;;30.50;96.20;;;;;;5073629;28;20028;-71
2022/01/11 07:31:16;;;;;;;20.52;9.98;;;30.70;96.50;;;;;;5072229;28;20111;-73
2022/01/11 07:33:42;;;;;;;17.23;8.70;;;30.70;95.90;;;;;;5071975;28;20041;-72
2022/01/11 07:36:09;;;;;;;15.35;8.77;;;30.70;95.10;;;;;;5063667;28;20028;-74
2022/01/11 07:38:36;;;;;;;11.40;8.00;;;30.60;94.10;;;;;;5072808;28;20056;-71
2022/01/11 07:41:05;;;;;;;14.45;7.55;;;30.50;94.50;;;;;;5072781;28;20020;-71
2022/01/11 07:43:31;;;;;;;16.48;9.52;;;30.50;94.50;;;;;;5073148;28;20032;-73
2022/01/11 07:45:58;;;;;;;12.77;8.77;;;30.60;95.10;;;;;;5072613;28;20497;-72
2022/01/11 07:48:25;;;;;;;15.77;10.25;;;30.60;94.40;;;;;;5073169;28;20048;-71
2022/01/11 07:50:51;;;;;;;18.38;10.65;;;30.60;94.90;;;;;;5071934;28;20048;-70
2022/01/11 07:53:18;;;;;;;17.90;11.20;;;30.60;95.20;;;;;;5072473;28;20071;-70
2022/01/11 07:55:44;;;;;;;13.07;9.60;;;30.60;95.00;;;;;;5066888;28;20488;-74
2022/01/11 07:58:11;;;;;;;15.85;9.90;;;30.50;94.90;;;;;;5088244;28;20499;-70
2022/01/11 08:00:38;;;;;;;24.83;10.95;;;30.50;94.50;;;;;;5066246;28;20535;-70
2022/01/11 08:03:04;;;;;;;14.57;9.90;;;30.70;94.00;;;;;;5056364;28;20024;-69
2022/01/11 08:05:31;;;;;;;14.07;9.43;;;30.70;94.60;;;;;;5072723;28;20384;-72
2022/01/11 08:07:58;;;;;;;14.50;9.38;;;30.90;94.80;;;;;;5072080;28;20024;-72
2022/01/11 08:10:25;;;;;;;13.02;9.30;;;30.90;94.00;;;;;;5072453;28;20104;-69
2022/01/11 08:12:52;;;;;;;18.40;9.40;;;30.80;93.80;;;;;;5072504;28;20119;-69
2022/01/11 08:15:19;;;;;;;17.42;11.30;;;30.80;94.40;;;;;;5074198;28;20107;-73
2022/01/11 08:17:47;;;;;;;15.00;10.85;;;30.70;94.20;;;;;;5076486;28;20024;-72
2022/01/11 08:20:14;;;;;;;16.98;9.60;;;30.70;94.60;;;;;;5075655;28;20434;-71
2022/01/11 08:22:40;;;;;;;11.68;8.55;;;30.80;93.00;;;;;;5075963;28;20209;-70
2022/01/11 08:25:08;;;;;;;21.35;10.05;;;30.80;94.00;;;;;;5060262;28;20039;-69
2022/01/11 08:27:35;;;;;;;18.65;11.70;;;30.90;93.30;;;;;;5075859;28;20028;-72
2022/01/11 08:30:04;;;;;;;19.17;12.48;;;31.00;94.50;;;;;;5076326;28;20193;-73
2022/01/11 08:32:30;;;;;;;16.63;11.82;;;31.10;94.30;;;;;;5076055;28;20029;-70
2022/01/11 08:34:57;;;;;;;16.08;12.20;;;31.00;93.50;;;;;;5076037;28;20095;-69
2022/01/11 08:37:24;;;;;;;21.13;12.30;;;31.00;93.80;;;;;;5076070;28;20449;-72
2022/01/11 08:39:50;;;;;;;20.98;11.25;;;31.00;94.10;;;;;;5076221;28;20024;-70
2022/01/11 08:42:17;;;;;;;26.15;12.38;;;30.90;93.00;;;;;;5076514;28;20024;-71
2022/01/11 08:44:46;;;;;;;18.02;12.77;;;31.00;93.50;;;;;;5077111;28;20544;-70
2022/01/11 08:47:15;;;;;;;24.00;15.32;;;31.10;93.90;;;;;;5077087;28;20472;-71
2022/01/11 08:49:42;;;;;;;25.50;11.93;;;31.20;94.00;;;;;;5076800;28;20059;-70
2022/01/11 08:52:10;;;;;;;21.20;12.85;;;31.30;93.80;;;;;;5073123;28;20044;-73
2022/01/11 08:54:37;;;;;;;19.70;11.05;;;31.30;93.70;;;;;;5076648;28;20036;-71
2022/01/11 08:57:05;;;;;;;18.65;11.20;;;31.40;93.50;;;;;;5076004;28;20032;-76
2022/01/11 08:59:32;;;;;;;60.13;45.70;;;31.40;92.90;;;;;;5075729;28;20021;-71
2022/01/11 09:02:01;;;;;;;22.25;15.63;;;31.30;93.70;;;;;;5072054;28;20033;-71
2022/01/11 09:04:28;;;;;;;21.52;14.65;;;31.20;93.30;;;;;;5068623;28;20021;-71
2022/01/11 09:06:57;;;;;;;15.20;11.10;;;31.20;93.10;;;;;;5070135;28;20052;-70
2022/01/11 09:09:26;;;;;;;14.75;10.95;;;31.30;93.20;;;;;;5074002;28;20033;-72
2022/01/11 09:11:53;;;;;;;17.10;10.95;;;31.40;92.50;;;;;;5075739;28;20048;-71
2022/01/11 09:14:20;;;;;;;25.75;18.50;;;31.50;92.10;;;;;;5076177;28;20028;-72
2022/01/11 09:16:46;;;;;;;24.60;14.75;;;31.50;93.20;;;;;;5076069;28;20029;-70
2022/01/11 09:19:15;;;;;;;21.92;12.27;;;31.50;92.50;;;;;;5075381;28;20024;-74
2022/01/11 09:21:42;;;;;;;20.90;11.38;;;31.50;92.70;;;;;;5073221;28;20086;-73
2022/01/11 09:24:10;;;;;;;16.63;12.00;;;31.40;92.20;;;;;;5075530;28;20020;-71
2022/01/11 09:26:38;;;;;;;21.27;15.57;;;31.50;92.10;;;;;;5075014;28;20035;-69
2022/01/11 09:29:05;;;;;;;25.63;18.17;;;31.50;92.40;;;;;;5075138;28;20121;-72
2022/01/11 09:31:32;;;;;;;22.95;16.15;;;31.50;92.60;;;;;;5075931;28;20016;-71
2022/01/11 09:33:59;;;;;;;31.88;17.52;;;31.50;92.50;;;;;;5075510;28;20020;-71
2022/01/11 09:36:27;;;;;;;27.00;14.20;;;31.60;91.80;;;;;;5074525;28;20255;-72
2022/01/11 09:38:54;;;;;;;60.30;39.72;;;31.60;91.20;;;;;;5075291;28;20028;-70
2022/01/11 09:41:20;;;;;;;68.70;50.75;;;31.50;92.40;;;;;;5075457;28;20039;-69
2022/01/11 09:43:47;;;;;;;40.17;26.25;;;31.20;92.80;;;;;;5075242;28;20088;-70
2022/01/11 09:46:14;;;;;;;40.10;26.88;;;30.90;92.50;;;;;;5074359;28;20032;-70
2022/01/11 09:48:43;;;;;;;41.05;30.10;;;30.70;91.60;;;;;;5074435;28;20025;-69
2022/01/11 09:51:10;;;;;;;47.80;31.45;;;30.50;92.20;;;;;;5074351;28;20027;-69
2022/01/11 09:53:37;;;;;;;51.40;34.78;;;30.30;92.70;;;;;;5074184;28;20028;-71
2022/01/11 09:56:08;;;;;;;39.47;23.38;;;30.20;93.00;;;;;;5072292;28;20119;-71
2022/01/11 09:58:35;;;;;;;40.83;26.85;;;30.10;93.80;;;;;;5073907;28;20078;-71
2022/01/11 10:01:03;;;;;;;45.25;29.48;;;30.10;93.70;;;;;;5075570;28;20024;-71
2022/01/11 10:03:30;;;;;;;38.42;21.25;;;30.10;93.70;;;;;;5073210;28;20048;-72
2022/01/11 10:06:12;;;;;;;28.92;21.15;;;30.20;94.70;;;;;;5074443;28;20028;-70
2022/01/11 10:08:39;;;;;;;;;;;30.20;94.30;;;;;;5075345;28;20103;-69
2022/01/11 10:11:05;;;;;;;52.35;38.42;;;30.30;94.40;;;;;;5075164;28;19918;-70
2022/01/11 10:13:32;;;;;;;68.05;42.63;;;30.30;94.80;;;;;;5074195;28;20051;-70
2022/01/11 10:16:19;;;;;;;54.80;41.83;;;30.30;94.50;;;;;;5074359;28;20032;-70
2022/01/11 10:18:46;;;;;;;44.90;31.75;;;30.30;93.60;;;;;;5074498;28;20021;-69
2022/01/11 10:21:30;;;;;;;36.20;20.92;;;30.20;94.00;;;;;;5074436;28;20059;-72
2022/01/11 10:23:57;;;;;;;48.20;34.72;;;30.20;95.00;;;;;;5070905;28;20088;-70
2022/01/11 10:26:42;;;;;;;24.00;15.52;;;30.20;94.80;;;;;;5074179;28;20032;-71
2022/01/11 10:29:30;;;;;;;24.23;13.90;;;30.20;94.50;;;;;;5074278;28;20032;-71
2022/01/11 10:31:58;;;;;;;29.55;22.90;;;30.20;94.70;;;;;;5073986;28;20024;-71
2022/01/11 10:34:30;;;;;;;132.10;89.28;;;30.20;95.10;;;;;;5074448;28;20024;-69
2022/01/11 10:36:59;;;;;;;52.60;33.55;;;30.20;95.00;;;;;;5074263;28;20021;-69
2022/01/11 10:39:32;;;;;;;57.13;35.80;;;30.10;95.20;;;;;;5073864;28;20473;-70
2022/01/11 10:42:00;;;;;;;48.50;34.05;;;30.10;95.30;;;;;;5074459;28;20025;-71
2022/01/11 10:44:34;;;;;;;48.08;31.80;;;30.00;95.70;;;;;;5074408;28;20025;-71
2022/01/11 10:47:03;;;;;;;38.70;23.15;;;30.10;95.90;;;;;;5074043;28;20032;-71
2022/01/11 10:49:35;;;;;;;41.58;24.50;;;30.00;95.90;;;;;;5073942;28;20075;-72
2022/01/11 10:52:19;;;;;;;54.80;32.58;;;30.00;96.30;;;;;;5073499;28;20051;-71
2022/01/11 10:54:48;;;;;;;48.55;30.02;;;30.00;96.60;;;;;;5073709;28;20024;-71
2022/01/11 10:57:19;;;;;;;36.70;22.70;;;29.90;97.20;;;;;;5074226;28;20145;-70
2022/01/11 11:00:15;;;;;;;46.75;26.98;;;29.90;97.60;;;;;;5074323;28;20095;-74
2022/01/11 11:02:46;;;;;;;56.30;31.25;;;29.80;98.00;;;;;;5073928;28;20089;-71
2022/01/11 11:05:17;;;;;;;90.55;61.33;;;29.80;98.00;;;;;;5066157;28;20039;-71
2022/01/11 11:08:03;;;;;;;46.30;26.35;;;29.80;98.30;;;;;;5049940;28;20051;-69
2022/01/11 11:10:44;;;;;;;40.20;23.33;;;29.70;98.20;;;;;;5071241;28;20462;-70
2022/01/11 11:13:21;;;;;;;49.65;24.80;;;29.60;99.10;;;;;;5073495;28;20504;-70
2022/01/11 11:15:51;;;;;;;37.53;20.40;;;29.70;99.30;;;;;;5073389;28;20032;-70
2022/01/11 11:18:33;;;;;;;32.88;19.02;;;29.60;99.40;;;;;;5072635;28;20020;-71
2022/01/11 11:21:17;;;;;;;29.80;18.90;;;29.60;99.70;;;;;;5072946;28;20032;-67
2022/01/11 11:23:45;;;;;;;31.60;19.23;;;29.50;99.90;;;;;;5069892;28;20036;-70
2022/01/11 11:26:13;;;;;;;34.10;19.95;;;29.40;99.90;;;;;;5073567;28;20031;-67
2022/01/11 11:28:40;;;;;;;26.95;17.85;;;29.30;99.90;;;;;;5072668;28;20028;-68
2022/01/11 11:31:07;;;;;;;35.95;16.55;;;29.30;99.90;;;;;;5073483;28;20070;-68
2022/01/11 11:33:39;;;;;;;31.23;16.60;;;29.20;99.90;;;;;;5073730;28;20450;-68
2022/01/11 11:36:09;;;;;;;30.63;17.17;;;29.20;99.90;;;;;;5073340;28;20024;-68
2022/01/11 11:38:43;;;;;;;29.70;15.80;;;29.10;99.90;;;;;;5072752;28;20025;-67
2022/01/11 11:41:12;;;;;;;25.92;16.10;;;29.10;99.90;;;;;;5054701;28;20025;-69
2022/01/11 11:43:39;;;;;;;29.48;16.95;;;29.10;99.90;;;;;;5073582;28;20025;-67
2022/01/11 11:46:05;;;;;;;76.60;54.42;;;29.00;99.90;;;;;;5073031;28;20024;-67
2022/01/11 11:48:32;;;;;;;41.60;26.05;;;29.00;99.90;;;;;;5065987;28;20032;-69
2022/01/11 11:51:07;;;;;;;30.40;19.98;;;28.90;99.90;;;;;;5075128;28;20047;-69
2022/01/11 11:53:39;;;;;;;28.38;17.20;;;29.00;99.90;;;;;;5077133;28;20054;-69
2022/01/11 11:56:26;;;;;;;89.43;50.03;;;29.00;99.90;;;;;;5076023;28;20385;-71
2022/01/11 11:58:56;;;;;;;41.80;21.33;;;28.90;99.90;;;;;;5076781;28;20045;-68
2022/01/11 12:01:41;;;;;;;36.22;17.15;;;28.80;99.90;;;;;;5077124;28;20095;-72
2022/01/11 12:04:14;;;;;;;42.70;25.65;;;28.80;99.90;;;;;;5076806;28;20016;-69
2022/01/11 12:06:42;;;;;;;42.10;24.52;;;28.80;99.90;;;;;;5076329;28;20029;-68
2022/01/11 12:09:13;;;;;;;44.67;22.50;;;28.70;99.90;;;;;;5076361;28;20032;-68
2022/01/11 12:11:46;;;;;;;44.75;26.48;;;28.60;99.90;;;;;;5076689;28;20024;-69
2022/01/11 12:14:34;;;;;;;27.17;17.33;;;28.70;99.90;;;;;;5073799;28;20032;-69
2022/01/11 12:17:16;;;;;;;31.10;17.77;;;28.70;99.90;;;;;;5078471;28;20220;-69
2022/01/11 12:19:49;;;;;;;32.63;18.90;;;28.60;99.90;;;;;;5078900;28;20537;-69
2022/01/11 12:22:19;;;;;;;38.17;19.33;;;28.60;99.90;;;;;;5076055;28;20032;-68
2022/01/11 12:24:48;;;;;;;36.83;21.58;;;28.70;99.90;;;;;;5076769;28;20048;-71
2022/01/11 12:27:19;;;;;;;47.05;27.58;;;28.60;99.90;;;;;;5076765;28;20028;-72
2022/01/11 12:30:06;;;;;;;39.63;22.30;;;28.60;99.90;;;;;;5075090;28;20550;-69
2022/01/11 12:32:38;;;;;;;37.63;19.63;;;28.50;99.90;;;;;;5076540;28;20033;-73
2022/01/11 12:35:08;;;;;;;;;;;28.60;99.90;;;;;;5077272;28;20362;-69
2022/01/11 12:37:45;;;;;;;37.35;19.23;;;28.50;99.90;;;;;;5076435;28;19915;-72
2022/01/11 12:40:14;;;;;;;40.78;21.33;;;28.50;99.90;;;;;;5075736;28;20048;-69
2022/01/11 12:42:57;;;;;;;34.28;18.73;;;28.50;99.90;;;;;;5067633;28;20102;-73
2022/01/11 12:45:47;;;;;;;32.88;17.90;;;28.40;99.90;;;;;;5074378;28;20023;-71
2022/01/11 12:48:14;;;;;;;33.03;18.00;;;28.40;99.90;;;;;;5074717;28;20032;-72